Time;durP1;ratioP1;P1;durP2;ratioP2;P2;SDS_P1;SDS_P2;PMS_P1;PMS_P2;Temp;Humidity;BMP_temperature;BMP_pressure;BME280_temperature;BME280_humidity;BME280_pressure;Samples;Min_cycle;Max_cycle;Signal;HPM_P1;HPM_P2
2022/06/15 00:00:30;;;;;;;;;;;;;;;;;;5042246;28;19964;-77
2022/06/15 00:02:57;;;;;;;;;;;;;;;;;;5043232;28;19925;-76
2022/06/15 00:05:25;;;;;;;;;;;;;;;;;;5042169;28;19956;-77
2022/06/15 00:07:52;;;;;;;;;;;;;;;;;;5043359;28;19968;-78
2022/06/15 00:10:19;;;;;;;;;;;;;;;;;;5042886;28;19971;-78
2022/06/15 00:12:45;;;;;;;;;;;;;;;;;;5047958;28;19947;-80
2022/06/15 00:15:13;;;;;;;;;;;;;;;;;;5046724;28;19925;-80
2022/06/15 00:17:39;;;;;;;;;;;;;;;;;;5046264;28;19983;-77
2022/06/15 00:20:06;;;;;;;;;;;;;;;;;;5045158;28;19973;-78
2022/06/15 00:22:34;;;;;;;;;;;;;;;;;;5046288;28;19983;-77
2022/06/15 00:25:02;;;;;;;;;;;;;;;;;;5046166;28;19925;-79
2022/06/15 00:27:28;;;;;;;;;;;;;;;;;;5048384;28;19925;-79
2022/06/15 00:29:54;;;;;;;;;;;;;;;;;;5047840;28;19960;-77
2022/06/15 00:32:21;;;;;;;;;;;;;;;;;;5046388;28;19929;-79
2022/06/15 00:34:47;;;;;;;;;;;;;;;;;;5047794;28;19925;-79
2022/06/15 00:37:14;;;;;;;;;;;;;;;;;;5048634;28;19925;-78
2022/06/15 00:39:40;;;;;;;;;;;;;;;;;;5048025;28;19927;-78
2022/06/15 00:42:10;;;;;;;;;;;;;;;;;;5047094;28;19929;-78
2022/06/15 00:44:37;;;;;;;;;;;;;;;;;;5046389;28;19956;-77
2022/06/15 00:47:06;;;;;;;;;;;;;;;;;;5046908;28;19964;-79
2022/06/15 00:49:34;;;;;;;;;;;;;;;;;;5047118;28;19935;-79
2022/06/15 00:52:04;;;;;;;;;;;;;;;;;;5046555;28;19984;-79
2022/06/15 00:54:31;;;;;;;;;;;;;;;;;;5046877;28;19964;-79
2022/06/15 00:56:57;;;;;;;;;;;;;;;;;;5046469;28;19932;-79
2022/06/15 00:59:28;;;;;;;;;;;;;;;;;;5047323;28;20012;-79
2022/06/15 01:01:54;;;;;;;;;;;;;;;;;;5045440;28;19933;-79
2022/06/15 01:04:21;;;;;;;;;;;;;;;;;;5045163;28;19925;-77
2022/06/15 01:06:50;;;;;;;;;;;;;;;;;;5045670;28;20011;-79
2022/06/15 01:09:20;;;;;;;;;;;;;;;;;;5039601;28;19983;-77
2022/06/15 01:11:54;;;;;;;;;;;;;;;;;;5036192;28;19925;-78
2022/06/15 01:14:44;;;;;;;;;;;;;;;;;;5035894;28;20304;-77
2022/06/15 01:17:18;;;;;;;;;;;;;;;;;;5034921;28;20015;-78
2022/06/15 01:20:03;;;;;;;;;;;;;;;;;;5035386;28;19975;-78
2022/06/15 01:22:46;;;;;;;;;;;;;;;;;;5035063;28;19975;-78
2022/06/15 01:25:26;;;;;;;;;;;;;;;;;;5035332;28;19975;-78
2022/06/15 01:28:06;;;;;;;;;;;;;;;;;;5035466;28;19965;-78
2022/06/15 01:30:40;;;;;;;;;;;;;;;;;;5034649;28;20447;-78
2022/06/15 01:33:11;;;;;;;;;;;;;;;;;;5035381;28;19925;-78
2022/06/15 01:35:42;;;;;;;;;;;;;;;;;;5035325;28;20401;-78
2022/06/15 01:38:21;;;;;;;;;;;;;;;;;;5034563;28;20011;-78
2022/06/15 01:40:50;;;;;;;;;;;;;;;;;;5034835;28;20364;-77
2022/06/15 01:43:19;;;;;;;;;;;;;;;;;;5034892;28;19992;-78
2022/06/15 01:45:48;;;;;;;;;;;;;;;;;;5034840;28;20008;-78
2022/06/15 01:48:16;;;;;;;;;;;;;;;;;;5034213;28;19925;-78
2022/06/15 01:50:45;;;;;;;;;;;;;;;;;;5034637;28;20025;-78
2022/06/15 01:53:14;;;;;;;;;;;;;;;;;;5035091;28;20028;-78
2022/06/15 01:55:43;;;;;;;;;;;;;;;;;;5035661;28;20091;-77
2022/06/15 01:58:10;;;;;;;;;;;;;;;;;;5035375;28;19960;-78
2022/06/15 02:00:37;;;;;;;;;;;;;;;;;;5035801;28;19968;-77
2022/06/15 02:03:09;;;;;;;;;;;;;;;;;;5034732;28;20015;-78
2022/06/15 02:05:40;;;;;;;;;;;;;;;;;;5043842;28;20299;-77
2022/06/15 02:08:17;;;;;;;;;;;;;;;;;;5043175;28;19925;-78
2022/06/15 02:10:49;;;;;;;;;;;;;;;;;;5042923;28;19925;-77
2022/06/15 02:13:17;;;;;;;;;;;;;;;;;;5042195;28;19964;-77
2022/06/15 02:15:46;;;;;;;;;;;;;;;;;;5042313;28;19925;-77
2022/06/15 02:18:16;;;;;;;;;;;;;;;;;;5038453;28;19995;-77
2022/06/15 02:20:44;;;;;;;;;;;;;;;;;;5032487;28;19925;-76
2022/06/15 02:23:11;;;;;;;;;;;;;;;;;;5032988;28;20016;-77
2022/06/15 02:25:40;;;;;;;;;;;;;;;;;;5032682;28;19972;-78
2022/06/15 02:28:07;;;;;;;;;;;;;;;;;;5032686;28;19933;-76
2022/06/15 02:30:33;;;;;;;;;;;;;;;;;;5032257;28;19976;-76
2022/06/15 02:33:03;;;;;;;;;;;;;;;;;;5032724;28;19931;-77
2022/06/15 02:35:31;;;;;;;;;;;;;;;;;;5032497;28;20015;-76
2022/06/15 02:37:57;;;;;;;;;;;;;;;;;;5032524;28;19931;-77
2022/06/15 02:40:23;;;;;;;;;;;;;;;;;;5032541;28;19925;-76
2022/06/15 02:42:50;;;;;;;;;;;;;;;;;;5032791;28;19925;-76
2022/06/15 02:45:19;;;;;;;;;;;;;;;;;;5032705;28;19925;-78
2022/06/15 02:47:45;;;;;;;;;;;;;;;;;;5032439;28;19979;-77
2022/06/15 02:50:13;;;;;;;;;;;;;;;;;;5032286;28;19925;-77
2022/06/15 02:52:43;;;;;;;;;;;;;;;;;;5032641;28;19976;-76
2022/06/15 02:55:10;;;;;;;;;;;;;;;;;;5033081;28;19925;-75
2022/06/15 02:57:44;;;;;;;;;;;;;;;;;;5032434;28;19925;-76
2022/06/15 03:00:12;;;;;;;;;;;;;;;;;;5032201;28;20008;-76
2022/06/15 03:02:38;;;;;;;;;;;;;;;;;;5032051;28;20399;-77
2022/06/15 03:05:05;;;;;;;;;;;;;;;;;;5033398;28;20506;-77
2022/06/15 03:07:32;;;;;;;;;;;;;;;;;;5032829;28;19932;-77
2022/06/15 03:09:59;;;;;;;;;;;;;;;;;;5031986;28;19983;-77
2022/06/15 03:12:26;;;;;;;;;;;;;;;;;;5032039;28;19925;-78
2022/06/15 03:14:53;;;;;;;;;;;;;;;;;;5032419;28;20012;-77
2022/06/15 03:17:19;;;;;;;;;;;;;;;;;;5042351;28;19976;-77
2022/06/15 03:19:46;;;;;;;;;;;;;;;;;;5041148;28;20014;-77
2022/06/15 03:22:12;;;;;;;;;;;;;;;;;;5036708;28;20273;-76
2022/06/15 03:24:38;;;;;;;;;;;;;;;;;;5039242;28;19929;-77
2022/06/15 03:27:06;;;;;;;;;;;;;;;;;;5041274;28;20319;-79
2022/06/15 03:29:33;;;;;;;;;;;;;;;;;;5040724;28;20028;-78
2022/06/15 03:31:59;;;;;;;;;;;;;;;;;;5040446;28;19961;-79
2022/06/15 03:34:26;;;;;;;;;;;;;;;;;;5036299;28;20344;-76
2022/06/15 03:36:52;;;;;;;;;;;;;;;;;;5032468;28;20024;-77
2022/06/15 03:39:19;;;;;;;;;;;;;;;;;;5031681;28;20012;-76
2022/06/15 03:41:45;;;;;;;;;;;;;;;;;;5031968;28;20366;-77
2022/06/15 03:44:13;;;;;;;;;;;;;;;;;;5032178;28;20024;-78
2022/06/15 03:46:40;;;;;;;;;;;;;;;;;;5033227;28;19932;-77
2022/06/15 03:49:06;;;;;;;;;;;;;;;;;;5035613;28;20415;-77
2022/06/15 03:51:33;;;;;;;;;;;;;;;;;;5035182;28;20016;-77
2022/06/15 03:53:59;;;;;;;;;;;;;;;;;;5035761;28;19929;-77
2022/06/15 03:56:39;;;;;;;;;;;;;;;;;;5035872;28;20004;-77
2022/06/15 03:59:06;;;;;;;;;;;;;;;;;;5036110;28;20041;-76
2022/06/15 04:01:33;;;;;;;;;;;;;;;;;;5035507;28;20016;-77
2022/06/15 04:04:00;;;;;;;;;;;;;;;;;;5038344;28;20443;-78
2022/06/15 04:06:26;;;;;;;;;;;;;;;;;;5039734;28;19953;-79
2022/06/15 04:08:52;;;;;;;;;;;;;;;;;;5039015;28;19925;-78
2022/06/15 04:13:59;;;;;;;;;;;;;;;;;;5046298;28;19935;-79
2022/06/15 04:16:26;;;;;;;;;;;;;;;;;;5038402;28;20288;-77
2022/06/15 04:18:53;;;;;;;;;;;;;;;;;;5036109;28;20369;-77
2022/06/15 04:21:20;;;;;;;;;;;;;;;;;;5035740;28;19972;-77
2022/06/15 04:23:46;;;;;;;;;;;;;;;;;;5035407;28;19976;-77
2022/06/15 04:26:13;;;;;;;;;;;;;;;;;;5035625;28;19977;-76
2022/06/15 04:28:41;;;;;;;;;;;;;;;;;;5035259;28;19931;-77
2022/06/15 04:31:07;;;;;;;;;;;;;;;;;;5035724;28;19925;-78
2022/06/15 04:33:34;;;;;;;;;;;;;;;;;;5035953;28;19971;-77
2022/06/15 04:36:02;;;;;;;;;;;;;;;;;;5035206;28;20446;-78
2022/06/15 04:38:28;;;;;;;;;;;;;;;;;;5035912;28;20019;-77
2022/06/15 04:40:55;;;;;;;;;;;;;;;;;;5039191;28;20346;-79
2022/06/15 04:43:21;;;;;;;;;;;;;;;;;;5039263;28;19932;-79
2022/06/15 04:45:48;;;;;;;;;;;;;;;;;;5039639;28;19972;-79
2022/06/15 04:48:14;;;;;;;;;;;;;;;;;;5040334;28;19976;-79
2022/06/15 04:50:41;;;;;;;;;;;;;;;;;;5043752;28;19935;-78
2022/06/15 04:53:09;;;;;;;;;;;;;;;;;;5044799;28;19925;-78
2022/06/15 04:55:36;;;;;;;;;;;;;;;;;;5046679;28;20367;-78
2022/06/15 04:58:02;;;;;;;;;;;;;;;;;;5043222;28;19926;-79
2022/06/15 05:00:30;;;;;;;;;;;;;;;;;;5043593;28;19992;-78
2022/06/15 05:02:57;;;;;;;;;;;;;;;;;;5043671;28;19925;-78
2022/06/15 05:05:24;;;;;;;;;;;;;;;;;;5045353;28;19997;-78
2022/06/15 05:07:52;;;;;;;;;;;;;;;;;;5045090;28;19975;-78
2022/06/15 05:10:21;;;;;;;;;;;;;;;;;;5043829;28;19929;-79
2022/06/15 05:12:48;;;;;;;;;;;;;;;;;;5044905;28;19925;-78
2022/06/15 05:15:15;;;;;;;;;;;;;;;;;;5041294;28;20359;-78
2022/06/15 05:17:42;;;;;;;;;;;;;;;;;;5045637;28;19925;-78
2022/06/15 05:20:09;;;;;;;;;;;;;;;;;;5040058;28;19931;-77
2022/06/15 05:22:36;;;;;;;;;;;;;;;;;;5038733;28;19980;-78
2022/06/15 05:25:03;;;;;;;;;;;;;;;;;;5036265;28;20380;-78
2022/06/15 05:27:31;;;;;;;;;;;;;;;;;;5035637;28;19929;-78
2022/06/15 05:29:57;;;;;;;;;;;;;;;;;;5036140;28;19925;-78
2022/06/15 05:32:24;;;;;;;;;;;;;;;;;;5035866;28;20023;-77
2022/06/15 05:34:51;;;;;;;;;;;;;;;;;;5034388;28;19975;-78
2022/06/15 05:37:17;;;;;;;;;;;;;;;;;;5034468;28;19929;-77
2022/06/15 05:39:44;;;;;;;;;;;;;;;;;;5033717;28;20778;-75
2022/06/15 05:42:11;;;;;;;;;;;;;;;;;;5034300;28;20032;-77
2022/06/15 05:44:45;;;;;;;;;;;;;;;;;;5039987;28;19925;-77
2022/06/15 05:47:11;;;;;;;;;;;;;;;;;;5048062;28;19965;-77
2022/06/15 05:49:38;;;;;;;;;;;;;;;;;;5050153;28;19925;-77
2022/06/15 05:52:05;;;;;;;;;;;;;;;;;;5040849;28;20006;-78
2022/06/15 05:54:31;;;;;;;;;;;;;;;;;;5037127;28;20012;-78
2022/06/15 05:56:58;;;;;;;;;;;;;;;;;;5037454;28;19965;-78
2022/06/15 05:59:24;;;;;;;;;;;;;;;;;;5037207;28;19932;-78
2022/06/15 06:01:52;;;;;;;;;;;;;;;;;;5035923;28;19971;-78
2022/06/15 06:04:20;;;;;;;;;;;;;;;;;;5036888;28;19925;-76
2022/06/15 06:06:47;;;;;;;;;;;;;;;;;;5035191;28;19932;-79
2022/06/15 06:09:14;;;;;;;;;;;;;;;;;;5035569;28;19925;-77
2022/06/15 06:11:41;;;;;;;;;;;;;;;;;;5035259;28;20019;-77
2022/06/15 06:14:08;;;;;;;;;;;;;;;;;;5034305;28;19931;-77
2022/06/15 06:16:35;;;;;;;;;;;;;;;;;;5034491;28;19925;-77
2022/06/15 06:19:03;;;;;;;;;;;;;;;;;;5033803;28;20350;-77
2022/06/15 06:21:29;;;;;;;;;;;;;;;;;;5033220;28;19931;-77
2022/06/15 06:23:56;;;;;;;;;;;;;;;;;;5033782;28;19932;-76
2022/06/15 06:26:24;;;;;;;;;;;;;;;;;;5033035;28;19976;-77
2022/06/15 06:28:51;;;;;;;;;;;;;;;;;;5032794;28;19931;-77
2022/06/15 06:31:20;;;;;;;;;;;;;;;;;;5032832;28;20023;-76
2022/06/15 06:33:47;;;;;;;;;;;;;;;;;;5032881;28;19925;-76
2022/06/15 06:36:16;;;;;;;;;;;;;;;;;;5032574;28;20297;-77
2022/06/15 06:38:43;;;;;;;;;;;;;;;;;;5032455;28;19932;-77
2022/06/15 06:41:10;;;;;;;;;;;;;;;;;;5032513;28;19971;-77
2022/06/15 06:43:37;;;;;;;;;;;;;;;;;;5032904;28;19932;-77
2022/06/15 06:46:05;;;;;;;;;;;;;;;;;;5032728;28;19925;-77
2022/06/15 06:48:31;;;;;;;;;;;;;;;;;;5032537;28;19932;-77
2022/06/15 06:50:57;;;;;;;;;;;;;;;;;;5033263;28;19925;-78
2022/06/15 06:53:25;;;;;;;;;;;;;;;;;;5037328;28;20011;-81
2022/06/15 06:55:52;;;;;;;;;;;;;;;;;;5038243;28;19926;-78
2022/06/15 06:58:18;;;;;;;;;;;;;;;;;;5034548;28;20023;-77
2022/06/15 07:00:46;;;;;;;;;;;;;;;;;;5026126;28;20534;-77
2022/06/15 07:03:12;;;;;;;;;;;;;;;;;;5029169;28;19932;-77
2022/06/15 07:05:39;;;;;;;;;;;;;;;;;;5031027;28;20401;-77
2022/06/15 07:08:05;;;;;;;;;;;;;;;;;;5031140;28;19935;-77
2022/06/15 07:10:33;;;;;;;;;;;;;;;;;;5030702;28;19925;-77
2022/06/15 07:13:00;;;;;;;;;;;;;;;;;;5035932;28;20096;-78
2022/06/15 07:15:26;;;;;;;;;;;;;;;;;;5037953;28;19929;-77
2022/06/15 07:17:54;;;;;;;;;;;;;;;;;;5033325;28;19926;-77
2022/06/15 07:20:21;;;;;;;;;;;;;;;;;;5031614;28;19983;-77
2022/06/15 07:22:47;;;;;;;;;;;;;;;;;;5034902;28;20414;-76
2022/06/15 07:25:14;;;;;;;;;;;;;;;;;;5034865;28;19925;-76
2022/06/15 07:27:42;;;;;;;;;;;;;;;;;;5035051;28;20020;-77
2022/06/15 07:30:12;;;;;;;;;;;;;;;;;;5034151;28;20028;-77
2022/06/15 07:32:40;;;;;;;;;;;;;;;;;;5034395;28;20008;-77
2022/06/15 07:35:07;;;;;;;;;;;;;;;;;;5036190;28;19972;-77
2022/06/15 07:37:34;;;;;;;;;;;;;;;;;;5037139;28;19925;-78
2022/06/15 07:40:00;;;;;;;;;;;;;;;;;;5036637;28;20307;-78
2022/06/15 07:42:26;;;;;;;;;;;;;;;;;;5036824;28;19925;-77
2022/06/15 07:44:54;;;;;;;;;;;;;;;;;;5037681;28;19945;-78
2022/06/15 07:50:05;;;;;;;;;;;;;;;;;;5034198;28;20413;-77
2022/06/15 07:52:33;;;;;;;;;;;;;;;;;;5033869;28;19932;-77
2022/06/15 07:55:00;;;;;;;;;;;;;;;;;;5034341;28;19925;-77
2022/06/15 07:57:26;;;;;;;;;;;;;;;;;;5034337;28;19932;-77
2022/06/15 07:59:53;;;;;;;;;;;;;;;;;;5034010;28;20019;-76
2022/06/15 08:02:21;;;;;;;;;;;;;;;;;;5034098;28;20011;-77
2022/06/15 08:04:47;;;;;;;;;;;;;;;;;;5036143;28;20410;-78
2022/06/15 08:07:14;;;;;;;;;;;;;;;;;;5038272;28;20546;-78
2022/06/15 08:09:41;;;;;;;;;;;;;;;;;;5036715;28;20015;-78
2022/06/15 08:12:16;;;;;;;;;;;;;;;;;;5035732;28;19925;-77
2022/06/15 08:14:44;;;;;;;;;;;;;;;;;;5034047;28;19925;-78
2022/06/15 08:17:12;;;;;;;;;;;;;;;;;;5036348;28;19984;-77
2022/06/15 08:19:41;;;;;;;;;;;;;;;;;;5034359;28;20391;-77
2022/06/15 08:22:08;;;;;;;;;;;;;;;;;;5037858;28;19983;-77
2022/06/15 08:24:34;;;;;;;;;;;;;;;;;;5036297;28;19925;-78
2022/06/15 08:27:01;;;;;;;;;;;;;;;;;;5041720;28;19964;-76
2022/06/15 08:29:28;;;;;;;;;;;;;;;;;;5039143;28;19980;-77
2022/06/15 08:31:57;;;;;;;;;;;;;;;;;;5034651;28;20024;-77
2022/06/15 08:34:23;;;;;;;;;;;;;;;;;;5033166;28;20003;-77
2022/06/15 08:36:51;;;;;;;;;;;;;;;;;;5033466;28;19975;-77
2022/06/15 08:39:18;;;;;;;;;;;;;;;;;;5033422;28;19991;-78
2022/06/15 08:41:48;;;;;;;;;;;;;;;;;;5033712;28;19975;-76
2022/06/15 08:44:21;;;;;;;;;;;;;;;;;;5033223;28;19929;-76
2022/06/15 08:46:52;;;;;;;;;;;;;;;;;;5033531;28;20017;-77
2022/06/15 08:49:26;;;;;;;;;;;;;;;;;;5038564;28;19992;-77
2022/06/15 08:51:58;;;;;;;;;;;;;;;;;;5043170;28;20008;-78
2022/06/15 08:54:28;;;;;;;;;;;;;;;;;;5043737;28;19948;-78
2022/06/15 08:56:57;;;;;;;;;;;;;;;;;;5034337;28;19979;-78
2022/06/15 08:59:28;;;;;;;;;;;;;;;;;;5032103;28;20012;-77
2022/06/15 09:02:00;;;;;;;;;;;;;;;;;;5032153;28;19931;-77
2022/06/15 09:04:31;;;;;;;;;;;;;;;;;;5032632;28;19932;-75
2022/06/15 09:07:07;;;;;;;;;;;;;;;;;;5032762;28;20223;-77
2022/06/15 09:09:44;;;;;;;;;;;;;;;;;;5032809;28;19931;-77
2022/06/15 09:15:06;;;;;;;;;;;;;;;;;;5032898;28;19932;-76
2022/06/15 09:17:34;;;;;;;;;;;;;;;;;;5034826;28;20016;-76
2022/06/15 09:20:02;;;;;;;;;;;;;;;;;;5034432;28;19925;-77
2022/06/15 09:22:32;;;;;;;;;;;;;;;;;;5032700;28;19929;-78
2022/06/15 09:25:01;;;;;;;;;;;;;;;;;;5032767;28;19964;-78
2022/06/15 09:27:32;;;;;;;;;;;;;;;;;;5032457;28;20475;-77
2022/06/15 09:30:02;;;;;;;;;;;;;;;;;;5032557;28;19925;-77
2022/06/15 09:32:32;;;;;;;;;;;;;;;;;;5033082;28;19963;-78
2022/06/15 09:35:01;;;;;;;;;;;;;;;;;;5033934;28;19932;-78
2022/06/15 09:37:30;;;;;;;;;;;;;;;;;;5033100;28;19999;-76
2022/06/15 09:39:58;;;;;;;;;;;;;;;;;;5032108;28;20370;-78
2022/06/15 09:42:27;;;;;;;;;;;;;;;;;;5032256;28;19931;-77
2022/06/15 09:44:59;;;;;;;;;;;;;;;;;;5031546;28;20015;-76
2022/06/15 09:47:37;;;;;;;;;;;;;;;;;;5032889;28;20008;-77
2022/06/15 09:50:11;;;;;;;;;;;;;;;;;;5033614;28;19975;-76
2022/06/15 09:52:42;;;;;;;;;;;;;;;;;;5032590;28;19932;-77
2022/06/15 09:55:13;;;;;;;;;;;;;;;;;;5033808;28;19960;-78
2022/06/15 09:57:41;;;;;;;;;;;;;;;;;;5033862;28;19925;-78
2022/06/15 10:00:09;;;;;;;;;;;;;;;;;;5033454;28;19925;-77
2022/06/15 10:02:37;;;;;;;;;;;;;;;;;;5032182;28;19929;-76
2022/06/15 10:05:06;;;;;;;;;;;;;;;;;;5031568;28;20012;-76
2022/06/15 10:07:35;;;;;;;;;;;;;;;;;;5031931;28;20418;-77
2022/06/15 10:10:13;;;;;;;;;;;;;;;;;;5031196;28;20003;-77
2022/06/15 10:12:59;;;;;;;;;;;;;;;;;;5031323;28;19956;-77
2022/06/15 10:15:27;;;;;;;;;;;;;;;;;;5031323;28;19925;-76
2022/06/15 10:17:56;;;;;;;;;;;;;;;;;;5028868;22;20445;-77
2022/06/15 10:20:25;;;;;;;;;;;;;;;;;;5011902;28;20392;-76
2022/06/15 10:22:53;;;;;;;;;;;;;;;;;;5012940;28;19932;-78
2022/06/15 10:25:20;;;;;;;;;;;;;;;;;;5016809;28;19974;-80
2022/06/15 10:27:48;;;;;;;;;;;;;;;;;;5015752;28;19957;-78
2022/06/15 10:30:17;;;;;;;;;;;;;;;;;;5012312;28;19929;-78
2022/06/15 10:32:57;;;;;;;;;;;;;;;;;;5014654;28;19979;-78
2022/06/15 10:35:24;;;;;;;;;;;;;;;;;;5016529;28;19968;-79
2022/06/15 10:37:52;;;;;;;;;;;;;;;;;;5015957;28;19925;-79
2022/06/15 10:40:21;;;;;;;;;;;;;;;;;;5016199;28;20362;-79
2022/06/15 10:42:51;;;;;;;;;;;;;;;;;;5016006;28;19925;-78
2022/06/15 10:45:21;;;;;;;;;;;;;;;;;;5026353;28;19925;-77
2022/06/15 10:47:52;;;;;;;;;;;;;;;;;;5024753;28;19913;-77
2022/06/15 10:50:23;;;;;;;;;;;;;;;;;;5021913;28;20291;-79
2022/06/15 10:52:53;;;;;;;;;;;;;;;;;;5019679;28;19940;-78
2022/06/15 11:04:03;;;;;;;;;;;;;;;;;;5018063;28;19996;-79
2022/06/15 11:06:36;;;;;;;;;;;;;;;;;;5017126;28;20583;-79
2022/06/15 11:09:03;;;;;;;;;;;;;;;;;;5012749;28;20011;-78
2022/06/15 11:11:29;;;;;;;;;;;;;;;;;;5014457;28;20003;-78
2022/06/15 11:13:57;;;;;;;;;;;;;;;;;;5014430;28;19980;-79
2022/06/15 11:19:16;;;;;;;;;;;;;;;;;;5013472;28;20208;-78
2022/06/15 11:21:45;;;;;;;;;;;;;;;;;;5012994;28;19968;-79
2022/06/15 11:24:18;;;;;;;;;;;;;;;;;;5013110;28;19945;-79
2022/06/15 11:26:55;;;;;;;;;;;;;;;;;;5013527;28;20016;-79
2022/06/15 11:29:32;;;;;;;;;;;;;;;;;;5015576;28;19931;-78
2022/06/15 11:32:03;;;;;;;;;;;;;;;;;;5014034;28;19925;-76
2022/06/15 11:34:33;;;;;;;;;;;;;;;;;;5011727;28;20029;-77
2022/06/15 11:37:04;;;;;;;;;;;;;;;;;;5012726;28;19929;-79
2022/06/15 11:39:33;;;;;;;;;;;;;;;;;;5014516;28;19926;-78
2022/06/15 11:42:00;;;;;;;;;;;;;;;;;;5014290;28;20002;-79
2022/06/15 11:44:28;;;;;;;;;;;;;;;;;;5014814;28;19995;-79
2022/06/15 11:47:04;;;;;;;;;;;;;;;;;;5016171;28;19932;-78
2022/06/15 11:49:35;;;;;;;;;;;;;;;;;;5014120;28;19926;-78
2022/06/15 11:52:11;;;;;;;;;;;;;;;;;;5012644;28;19926;-76
2022/06/15 11:54:45;;;;;;;;;;;;;;;;;;5012002;28;20471;-77
2022/06/15 11:57:17;;;;;;;;;;;;;;;;;;5012218;28;20008;-77
2022/06/15 11:59:49;;;;;;;;;;;;;;;;;;5013832;28;19926;-77
2022/06/15 12:02:19;;;;;;;;;;;;;;;;;;5014368;28;20012;-78
2022/06/15 12:05:06;;;;;;;;;;;;;;;;;;5011930;28;19925;-77
2022/06/15 12:07:36;;;;;;;;;;;;;;;;;;5000055;28;20008;-78
2022/06/15 12:10:06;;;;;;;;;;;;;;;;;;5036406;28;20017;-77
2022/06/15 12:12:39;;;;;;;;;;;;;;;;;;5035765;28;20401;-79
2022/06/15 12:15:12;;;;;;;;;;;;;;;;;;5036896;28;19972;-78
2022/06/15 12:17:43;;;;;;;;;;;;;;;;;;5051816;28;19996;-78
2022/06/15 12:20:15;;;;;;;;;;;;;;;;;;5048051;28;19929;-77
2022/06/15 12:22:45;;;;;;;;;;;;;;;;;;5042382;28;19929;-78
2022/06/15 12:25:16;;;;;;;;;;;;;;;;;;5038931;28;19932;-78
2022/06/15 12:27:45;;;;;;;;;;;;;;;;;;5036349;28;19975;-78
2022/06/15 12:30:18;;;;;;;;;;;;;;;;;;5037945;28;19925;-79
2022/06/15 12:32:51;;;;;;;;;;;;;;;;;;5037451;28;19932;-79
2022/06/15 12:35:26;;;;;;;;;;;;;;;;;;5037397;28;19925;-78
2022/06/15 12:37:57;;;;;;;;;;;;;;;;;;5040985;28;19945;-78
2022/06/15 12:40:28;;;;;;;;;;;;;;;;;;5048558;28;19921;-79
2022/06/15 12:42:55;;;;;;;;;;;;;;;;;;5051315;28;19981;-79
2022/06/15 12:45:23;;;;;;;;;;;;;;;;;;5054925;28;19921;-78
2022/06/15 12:47:53;;;;;;;;;;;;;;;;;;5042983;28;19925;-77
2022/06/15 12:50:41;;;;;;;;;;;;;;;;;;5036586;28;19929;-77
2022/06/15 12:53:12;;;;;;;;;;;;;;;;;;5031080;28;20388;-79
2022/06/15 12:55:42;;;;;;;;;;;;;;;;;;5040986;28;19929;-77
2022/06/15 12:58:15;;;;;;;;;;;;;;;;;;5047362;28;19929;-77
2022/06/15 13:00:43;;;;;;;;;;;;;;;;;;5046685;28;19957;-76
2022/06/15 13:03:18;;;;;;;;;;;;;;;;;;5046422;28;19967;-77
2022/06/15 13:05:45;;;;;;;;;;;;;;;;;;5044121;28;19925;-80
2022/06/15 13:08:20;;;;;;;;;;;;;;;;;;5036580;28;19925;-78
2022/06/15 13:11:05;;;;;;;;;;;;;;;;;;5038324;28;19932;-78
2022/06/15 13:13:33;;;;;;;;;;;;;;;;;;5043311;28;19984;-78
2022/06/15 13:16:02;;;;;;;;;;;;;;;;;;5040436;28;19979;-79
2022/06/15 13:18:46;;;;;;;;;;;;;;;;;;5037205;28;19928;-80
2022/06/15 13:21:13;;;;;;;;;;;;;;;;;;5035476;28;19925;-80
2022/06/15 13:23:41;;;;;;;;;;;;;;;;;;5035986;28;20020;-79
2022/06/15 13:26:12;;;;;;;;;;;;;;;;;;5034980;28;19935;-79
2022/06/15 13:28:40;;;;;;;;;;;;;;;;;;5035036;28;19931;-80
2022/06/15 13:31:08;;;;;;;;;;;;;;;;;;5035609;28;20307;-79
2022/06/15 13:33:55;;;;;;;;;;;;;;;;;;5036847;28;20012;-77
2022/06/15 13:36:24;;;;;;;;;;;;;;;;;;5035749;28;19988;-80
2022/06/15 13:38:51;;;;;;;;;;;;;;;;;;5035688;28;20530;-78
2022/06/15 13:41:23;;;;;;;;;;;;;;;;;;5034688;28;19929;-78
2022/06/15 13:44:08;;;;;;;;;;;;;;;;;;5036726;28;19932;-80
2022/06/15 13:46:37;;;;;;;;;;;;;;;;;;5035259;28;20419;-79
2022/06/15 13:49:06;;;;;;;;;;;;;;;;;;5034853;28;20016;-77
2022/06/15 13:51:36;;;;;;;;;;;;;;;;;;5035304;28;20012;-78
2022/06/15 13:54:07;;;;;;;;;;;;;;;;;;5034606;28;19925;-78
2022/06/15 13:56:38;;;;;;;;;;;;;;;;;;5034077;28;19925;-79
2022/06/15 13:59:10;;;;;;;;;;;;;;;;;;5034484;28;19925;-79
2022/06/15 14:01:44;;;;;;;;;;;;;;;;;;5039697;28;19968;-80
2022/06/15 14:04:18;;;;;;;;;;;;;;;;;;5039043;28;19951;-80
2022/06/15 14:06:52;;;;;;;;;;;;;;;;;;5038521;28;19994;-78
2022/06/15 14:09:26;;;;;;;;;;;;;;;;;;5043785;28;20012;-77
2022/06/15 14:12:07;;;;;;;;;;;;;;;;;;5045840;28;19925;-77
2022/06/15 14:14:50;;;;;;;;;;;;;;;;;;5025820;28;19925;-77
2022/06/15 14:17:25;;;;;;;;;;;;;;;;;;5036071;28;19925;-77
2022/06/15 14:19:56;;;;;;;;;;;;;;;;;;5043016;28;19932;-77
2022/06/15 14:22:25;;;;;;;;;;;;;;;;;;5037756;28;20008;-77
2022/06/15 14:25:01;;;;;;;;;;;;;;;;;;5038828;28;19925;-78
2022/06/15 14:27:28;;;;;;;;;;;;;;;;;;5040658;28;19979;-78
2022/06/15 14:29:55;;;;;;;;;;;;;;;;;;5036460;28;20016;-79
2022/06/15 14:32:24;;;;;;;;;;;;;;;;;;5037198;28;20020;-78
2022/06/15 14:34:51;;;;;;;;;;;;;;;;;;5040499;28;19925;-79
2022/06/15 14:37:19;;;;;;;;;;;;;;;;;;5038089;28;19929;-79
2022/06/15 14:39:48;;;;;;;;;;;;;;;;;;5035974;28;19961;-77
2022/06/15 14:42:17;;;;;;;;;;;;;;;;;;5036772;28;19932;-78
2022/06/15 14:44:44;;;;;;;;;;;;;;;;;;5036623;28;20005;-79
2022/06/15 14:47:12;;;;;;;;;;;;;;;;;;5034340;28;19931;-80
2022/06/15 14:49:41;;;;;;;;;;;;;;;;;;5034175;28;20269;-77
2022/06/15 14:52:12;;;;;;;;;;;;;;;;;;5031404;28;19925;-77
2022/06/15 14:54:38;;;;;;;;;;;;;;;;;;5035698;28;20019;-78
2022/06/15 14:57:06;;;;;;;;;;;;;;;;;;5034694;28;19929;-78
2022/06/15 14:59:43;;;;;;;;;;;;;;;;;;5048086;28;19971;-79
2022/06/15 15:02:10;;;;;;;;;;;;;;;;;;5055844;28;19968;-78
2022/06/15 15:04:39;;;;;;;;;;;;;;;;;;5054057;28;20012;-77
2022/06/15 15:08:05;;;;;;;;;;;;;;;;;;5052664;28;20015;-79
2022/06/15 15:09:53;;;;;;;;;;;;;;;;;;5057053;28;19935;-79
2022/06/15 15:12:22;;;;;;;;;;;;;;;;;;5058203;28;19925;-80
2022/06/15 15:14:54;;;;;;;;;;;;;;;;;;5053750;28;19929;-79
2022/06/15 15:17:20;;;;;;;;;;;;;;;;;;5055303;28;19932;-79
2022/06/15 15:19:47;;;;;;;;;;;;;;;;;;5055162;28;20376;-79
2022/06/15 15:22:15;;;;;;;;;;;;;;;;;;5037254;28;19972;-79
2022/06/15 15:24:45;;;;;;;;;;;;;;;;;;5036319;28;20000;-78
2022/06/15 15:27:13;;;;;;;;;;;;;;;;;;5036403;28;19929;-79
2022/06/15 15:35:19;;;;;;;;;;;;;;;;;;5035588;28;20010;-79
2022/06/15 15:37:47;;;;;;;;;;;;;;;;;;5035374;28;20025;-79
2022/06/15 15:40:16;;;;;;;;;;;;;;;;;;5037456;28;19929;-79
2022/06/15 15:42:43;;;;;;;;;;;;;;;;;;5040896;28;20218;-78
2022/06/15 15:45:14;;;;;;;;;;;;;;;;;;5040652;28;20311;-78
2022/06/15 15:47:41;;;;;;;;;;;;;;;;;;5040021;28;19925;-76
2022/06/15 15:50:09;;;;;;;;;;;;;;;;;;5040440;28;19925;-78
2022/06/15 15:52:36;;;;;;;;;;;;;;;;;;5037285;28;19929;-79
2022/06/15 15:55:02;;;;;;;;;;;;;;;;;;5040236;28;19983;-79
2022/06/15 15:57:29;;;;;;;;;;;;;;;;;;5035371;28;19929;-78
2022/06/15 15:59:55;;;;;;;;;;;;;;;;;;5039474;28;19968;-78
2022/06/15 16:02:26;;;;;;;;;;;;;;;;;;5035738;28;19957;-78
2022/06/15 16:04:53;;;;;;;;;;;;;;;;;;5034300;28;19928;-79
2022/06/15 16:07:22;;;;;;;;;;;;;;;;;;5036445;28;19929;-79
2022/06/15 16:09:50;;;;;;;;;;;;;;;;;;5039871;28;19929;-78
2022/06/15 16:12:17;;;;;;;;;;;;;;;;;;5040566;28;19925;-79
2022/06/15 16:14:43;;;;;;;;;;;;;;;;;;5040743;28;19925;-78
2022/06/15 16:17:10;;;;;;;;;;;;;;;;;;5045426;22;20031;-77
2022/06/15 16:19:40;;;;;;;;;;;;;;;;;;5033536;28;19925;-77
2022/06/15 16:22:07;;;;;;;;;;;;;;;;;;5033635;28;19929;-77
2022/06/15 16:24:34;;;;;;;;;;;;;;;;;;5034118;28;19932;-77
2022/06/15 16:27:01;;;;;;;;;;;;;;;;;;5034420;28;19925;-77
2022/06/15 16:29:28;;;;;;;;;;;;;;;;;;5033705;28;20307;-77
2022/06/15 16:31:55;;;;;;;;;;;;;;;;;;5033616;28;19957;-77
2022/06/15 16:34:21;;;;;;;;;;;;;;;;;;5033429;28;19932;-77
2022/06/15 16:36:49;;;;;;;;;;;;;;;;;;5033358;28;19968;-77
2022/06/15 16:39:16;;;;;;;;;;;;;;;;;;5032873;28;20007;-76
2022/06/15 16:41:42;;;;;;;;;;;;;;;;;;5032741;28;20544;-76
2022/06/15 16:44:09;;;;;;;;;;;;;;;;;;5028931;28;19961;-76
2022/06/15 16:46:35;;;;;;;;;;;;;;;;;;5012102;28;19926;-77
2022/06/15 16:49:03;;;;;;;;;;;;;;;;;;5013590;28;19931;-77
2022/06/15 16:51:30;;;;;;;;;;;;;;;;;;5013099;28;19929;-77
2022/06/15 16:53:59;;;;;;;;;;;;;;;;;;5011889;28;19926;-77
2022/06/15 16:56:28;;;;;;;;;;;;;;;;;;5012368;28;19926;-77
2022/06/15 16:58:55;;;;;;;;;;;;;;;;;;5012678;28;19972;-77
2022/06/15 17:01:22;;;;;;;;;;;;;;;;;;5012213;28;20016;-77
2022/06/15 17:03:49;;;;;;;;;;;;;;;;;;5012659;28;20024;-75
2022/06/15 17:06:16;;;;;;;;;;;;;;;;;;5012763;28;19926;-77
2022/06/15 17:08:43;;;;;;;;;;;;;;;;;;5012593;28;20026;-77
2022/06/15 17:11:16;;;;;;;;;;;;;;;;;;5012085;28;20016;-77
2022/06/15 17:13:44;;;;;;;;;;;;;;;;;;5011656;28;19930;-78
2022/06/15 17:16:10;;;;;;;;;;;;;;;;;;5012453;28;19931;-77
2022/06/15 17:18:37;;;;;;;;;;;;;;;;;;5012297;28;19965;-76
2022/06/15 17:21:04;;;;;;;;;;;;;;;;;;5012532;28;19932;-76
2022/06/15 17:23:34;;;;;;;;;;;;;;;;;;5011453;28;19925;-77